sensor_id;sensor_type;location;lat;lon;timestamp;temperature;humidity
19781;DHT22;10050;55.492;13.506;2024-01-30T00:01:58;2.40;99.90
19781;DHT22;10050;55.492;13.506;2024-01-30T00:04:23;2.50;99.90
19781;DHT22;10050;55.492;13.506;2024-01-30T00:06:50;2.50;99.90
19781;DHT22;10050;55.492;13.506;2024-01-30T00:09:16;2.60;99.90
19781;DHT22;10050;55.492;13.506;2024-01-30T00:11:41;2.60;99.90
19781;DHT22;10050;55.492;13.506;2024-01-30T00:14:07;2.70;99.90
19781;DHT22;10050;55.492;13.506;2024-01-30T00:16:32;2.70;99.90
19781;DHT22;10050;55.492;13.506;2024-01-30T00:18:58;2.70;99.90
19781;DHT22;10050;55.492;13.506;2024-01-30T00:21:24;2.80;99.90
19781;DHT22;10050;55.492;13.506;2024-01-30T00:23:50;2.80;99.90
19781;DHT22;10050;55.492;13.506;2024-01-30T00:26:15;2.90;99.90
19781;DHT22;10050;55.492;13.506;2024-01-30T00:28:41;2.90;99.90
19781;DHT22;10050;55.492;13.506;2024-01-30T00:31:07;3.00;99.90
19781;DHT22;10050;55.492;13.506;2024-01-30T00:33:33;3.00;99.90
19781;DHT22;10050;55.492;13.506;2024-01-30T00:35:59;3.00;99.90
19781;DHT22;10050;55.492;13.506;2024-01-30T00:38:24;3.00;99.90
19781;DHT22;10050;55.492;13.506;2024-01-30T00:40:50;3.10;99.90
19781;DHT22;10050;55.492;13.506;2024-01-30T00:43:16;3.10;99.90
19781;DHT22;10050;55.492;13.506;2024-01-30T00:45:43;3.10;99.90
19781;DHT22;10050;55.492;13.506;2024-01-30T00:48:09;3.10;99.90
19781;DHT22;10050;55.492;13.506;2024-01-30T00:50:34;3.10;99.90
19781;DHT22;10050;55.492;13.506;2024-01-30T00:53:00;3.10;99.90
19781;DHT22;10050;55.492;13.506;2024-01-30T00:55:26;3.10;99.90
19781;DHT22;10050;55.492;13.506;2024-01-30T00:57:51;3.20;99.90
19781;DHT22;10050;55.492;13.506;2024-01-30T01:00:17;3.10;99.90
19781;DHT22;10050;55.492;13.506;2024-01-30T01:02:43;3.10;99.90
19781;DHT22;10050;55.492;13.506;2024-01-30T01:05:10;3.20;99.90
19781;DHT22;10050;55.492;13.506;2024-01-30T01:07:35;3.10;99.90
19781;DHT22;10050;55.492;13.506;2024-01-30T01:10:01;3.20;99.90
19781;DHT22;10050;55.492;13.506;2024-01-30T01:12:28;3.20;99.90
19781;DHT22;10050;55.492;13.506;2024-01-30T01:14:53;3.20;99.90
19781;DHT22;10050;55.492;13.506;2024-01-30T01:17:19;3.20;99.90
19781;DHT22;10050;55.492;13.506;2024-01-30T01:19:44;3.20;99.90
19781;DHT22;10050;55.492;13.506;2024-01-30T01:22:10;3.20;99.90
19781;DHT22;10050;55.492;13.506;2024-01-30T01:24:36;3.20;99.90
19781;DHT22;10050;55.492;13.506;2024-01-30T01:27:02;3.20;99.90
19781;DHT22;10050;55.492;13.506;2024-01-30T01:29:28;3.10;99.90
19781;DHT22;10050;55.492;13.506;2024-01-30T01:31:58;3.20;99.90
19781;DHT22;10050;55.492;13.506;2024-01-30T01:34:24;3.10;99.90
19781;DHT22;10050;55.492;13.506;2024-01-30T01:36:50;3.20;99.90
19781;DHT22;10050;55.492;13.506;2024-01-30T01:39:16;3.20;99.90
19781;DHT22;10050;55.492;13.506;2024-01-30T01:41:42;3.20;99.90
19781;DHT22;10050;55.492;13.506;2024-01-30T01:44:08;3.20;99.90
19781;DHT22;10050;55.492;13.506;2024-01-30T01:46:35;3.20;99.90
19781;DHT22;10050;55.492;13.506;2024-01-30T01:49:05;3.30;99.90
19781;DHT22;10050;55.492;13.506;2024-01-30T01:51:33;3.30;99.90
19781;DHT22;10050;55.492;13.506;2024-01-30T01:54:03;3.30;99.90
19781;DHT22;10050;55.492;13.506;2024-01-30T01:56:29;3.30;99.90
19781;DHT22;10050;55.492;13.506;2024-01-30T01:59:00;3.30;99.90
19781;DHT22;10050;55.492;13.506;2024-01-30T02:01:27;3.30;99.90
19781;DHT22;10050;55.492;13.506;2024-01-30T02:03:54;3.30;99.90
19781;DHT22;10050;55.492;13.506;2024-01-30T02:06:20;3.40;99.90
19781;DHT22;10050;55.492;13.506;2024-01-30T02:08:45;3.40;99.90
19781;DHT22;10050;55.492;13.506;2024-01-30T02:11:11;3.50;99.90
19781;DHT22;10050;55.492;13.506;2024-01-30T02:13:37;3.40;99.90
19781;DHT22;10050;55.492;13.506;2024-01-30T02:16:03;3.40;99.90
19781;DHT22;10050;55.492;13.506;2024-01-30T02:18:31;3.50;99.90
19781;DHT22;10050;55.492;13.506;2024-01-30T02:20:58;3.50;99.90
19781;DHT22;10050;55.492;13.506;2024-01-30T02:23:27;3.50;99.90
19781;DHT22;10050;55.492;13.506;2024-01-30T02:25:53;3.50;99.90
19781;DHT22;10050;55.492;13.506;2024-01-30T02:28:19;3.50;99.90
19781;DHT22;10050;55.492;13.506;2024-01-30T02:30:45;3.50;99.90
19781;DHT22;10050;55.492;13.506;2024-01-30T02:33:13;3.60;99.90
19781;DHT22;10050;55.492;13.506;2024-01-30T02:35:39;3.60;99.90
19781;DHT22;10050;55.492;13.506;2024-01-30T02:38:05;3.60;99.90
19781;DHT22;10050;55.492;13.506;2024-01-30T02:40:31;3.60;99.90
19781;DHT22;10050;55.492;13.506;2024-01-30T02:42:59;3.60;99.90
19781;DHT22;10050;55.492;13.506;2024-01-30T02:45:25;3.60;99.90
19781;DHT22;10050;55.492;13.506;2024-01-30T02:47:51;3.60;99.90
19781;DHT22;10050;55.492;13.506;2024-01-30T02:50:17;3.60;99.90
19781;DHT22;10050;55.492;13.506;2024-01-30T02:52:43;3.60;99.90
19781;DHT22;10050;55.492;13.506;2024-01-30T02:55:09;3.60;99.90
19781;DHT22;10050;55.492;13.506;2024-01-30T02:57:35;3.60;99.90
19781;DHT22;10050;55.492;13.506;2024-01-30T03:00:01;3.60;99.90
19781;DHT22;10050;55.492;13.506;2024-01-30T03:02:26;3.60;99.90
19781;DHT22;10050;55.492;13.506;2024-01-30T03:04:52;3.60;99.90
19781;DHT22;10050;55.492;13.506;2024-01-30T03:07:18;3.60;99.90
19781;DHT22;10050;55.492;13.506;2024-01-30T03:09:43;3.60;99.90
19781;DHT22;10050;55.492;13.506;2024-01-30T03:12:12;3.50;99.90
19781;DHT22;10050;55.492;13.506;2024-01-30T03:14:38;3.50;99.90
19781;DHT22;10050;55.492;13.506;2024-01-30T03:17:03;3.50;99.90
19781;DHT22;10050;55.492;13.506;2024-01-30T03:19:29;3.50;99.90
19781;DHT22;10050;55.492;13.506;2024-01-30T03:21:55;3.50;99.90
19781;DHT22;10050;55.492;13.506;2024-01-30T03:24:20;3.60;99.90
19781;DHT22;10050;55.492;13.506;2024-01-30T03:26:46;3.60;99.90
19781;DHT22;10050;55.492;13.506;2024-01-30T03:29:12;3.60;99.90
19781;DHT22;10050;55.492;13.506;2024-01-30T03:31:38;3.60;99.90
19781;DHT22;10050;55.492;13.506;2024-01-30T03:34:04;3.60;99.90
19781;DHT22;10050;55.492;13.506;2024-01-30T03:36:29;3.60;99.90
19781;DHT22;10050;55.492;13.506;2024-01-30T03:38:58;3.70;99.90
19781;DHT22;10050;55.492;13.506;2024-01-30T03:41:24;3.70;99.90
19781;DHT22;10050;55.492;13.506;2024-01-30T03:43:49;3.70;99.90
19781;DHT22;10050;55.492;13.506;2024-01-30T03:46:15;3.60;99.90
19781;DHT22;10050;55.492;13.506;2024-01-30T03:48:41;3.60;99.90
19781;DHT22;10050;55.492;13.506;2024-01-30T03:51:06;3.70;99.90
19781;DHT22;10050;55.492;13.506;2024-01-30T03:53:32;3.60;99.90
19781;DHT22;10050;55.492;13.506;2024-01-30T03:55:57;3.60;99.90
19781;DHT22;10050;55.492;13.506;2024-01-30T03:58:23;3.60;99.90
19781;DHT22;10050;55.492;13.506;2024-01-30T04:00:49;3.60;99.90
19781;DHT22;10050;55.492;13.506;2024-01-30T04:03:15;3.70;99.90
19781;DHT22;10050;55.492;13.506;2024-01-30T04:05:43;3.70;99.90
19781;DHT22;10050;55.492;13.506;2024-01-30T04:08:09;3.70;99.90
19781;DHT22;10050;55.492;13.506;2024-01-30T04:10:34;3.80;99.90
19781;DHT22;10050;55.492;13.506;2024-01-30T04:13:00;3.80;99.90
19781;DHT22;10050;55.492;13.506;2024-01-30T04:15:26;3.80;99.90
19781;DHT22;10050;55.492;13.506;2024-01-30T04:17:52;3.80;99.90
19781;DHT22;10050;55.492;13.506;2024-01-30T04:20:18;3.80;99.90
19781;DHT22;10050;55.492;13.506;2024-01-30T04:22:44;3.80;99.90
19781;DHT22;10050;55.492;13.506;2024-01-30T04:25:11;3.90;99.90
19781;DHT22;10050;55.492;13.506;2024-01-30T04:27:37;3.90;99.90
19781;DHT22;10050;55.492;13.506;2024-01-30T04:30:03;3.90;99.90
19781;DHT22;10050;55.492;13.506;2024-01-30T04:32:29;3.90;99.90
19781;DHT22;10050;55.492;13.506;2024-01-30T04:34:55;3.90;99.90
19781;DHT22;10050;55.492;13.506;2024-01-30T04:37:20;3.90;99.90
19781;DHT22;10050;55.492;13.506;2024-01-30T04:39:46;3.90;99.90
19781;DHT22;10050;55.492;13.506;2024-01-30T04:42:12;3.90;99.90
19781;DHT22;10050;55.492;13.506;2024-01-30T04:44:37;3.90;99.90
19781;DHT22;10050;55.492;13.506;2024-01-30T04:47:03;3.90;99.90
19781;DHT22;10050;55.492;13.506;2024-01-30T04:49:31;3.90;99.90
19781;DHT22;10050;55.492;13.506;2024-01-30T04:51:57;3.90;99.90
19781;DHT22;10050;55.492;13.506;2024-01-30T04:54:23;3.90;99.90
19781;DHT22;10050;55.492;13.506;2024-01-30T04:56:48;3.90;99.90
19781;DHT22;10050;55.492;13.506;2024-01-30T04:59:14;4.00;99.90
19781;DHT22;10050;55.492;13.506;2024-01-30T05:01:40;4.00;99.90
19781;DHT22;10050;55.492;13.506;2024-01-30T05:04:07;4.00;99.90
19781;DHT22;10050;55.492;13.506;2024-01-30T05:06:33;4.10;99.90
19781;DHT22;10050;55.492;13.506;2024-01-30T05:08:59;4.10;99.90
19781;DHT22;10050;55.492;13.506;2024-01-30T05:11:24;4.10;99.90
19781;DHT22;10050;55.492;13.506;2024-01-30T05:13:50;4.10;99.90
19781;DHT22;10050;55.492;13.506;2024-01-30T05:16:16;4.10;99.90
19781;DHT22;10050;55.492;13.506;2024-01-30T05:18:41;4.10;99.90
19781;DHT22;10050;55.492;13.506;2024-01-30T05:21:07;4.00;99.90
19781;DHT22;10050;55.492;13.506;2024-01-30T05:23:32;4.00;99.90
19781;DHT22;10050;55.492;13.506;2024-01-30T05:25:59;4.00;99.90
19781;DHT22;10050;55.492;13.506;2024-01-30T05:28:26;4.00;99.90
19781;DHT22;10050;55.492;13.506;2024-01-30T05:30:52;4.10;99.90
19781;DHT22;10050;55.492;13.506;2024-01-30T05:33:17;4.00;99.90
19781;DHT22;10050;55.492;13.506;2024-01-30T05:35:43;4.10;99.90
19781;DHT22;10050;55.492;13.506;2024-01-30T05:38:08;4.00;99.90
19781;DHT22;10050;55.492;13.506;2024-01-30T05:40:34;4.00;99.90
19781;DHT22;10050;55.492;13.506;2024-01-30T05:43:00;4.00;99.90
19781;DHT22;10050;55.492;13.506;2024-01-30T05:45:26;4.00;99.90
19781;DHT22;10050;55.492;13.506;2024-01-30T05:47:53;4.00;99.90
19781;DHT22;10050;55.492;13.506;2024-01-30T05:50:19;4.00;99.90
19781;DHT22;10050;55.492;13.506;2024-01-30T05:52:45;4.00;99.90
19781;DHT22;10050;55.492;13.506;2024-01-30T05:55:12;4.00;99.90
19781;DHT22;10050;55.492;13.506;2024-01-30T05:57:38;4.00;99.90
19781;DHT22;10050;55.492;13.506;2024-01-30T06:00:05;4.00;99.90
19781;DHT22;10050;55.492;13.506;2024-01-30T06:02:31;4.10;99.90
19781;DHT22;10050;55.492;13.506;2024-01-30T06:04:56;4.00;99.90
19781;DHT22;10050;55.492;13.506;2024-01-30T06:07:22;4.00;99.90
19781;DHT22;10050;55.492;13.506;2024-01-30T06:09:48;4.00;99.90
19781;DHT22;10050;55.492;13.506;2024-01-30T06:12:13;4.00;99.90
19781;DHT22;10050;55.492;13.506;2024-01-30T06:14:39;4.00;99.90
19781;DHT22;10050;55.492;13.506;2024-01-30T06:17:05;4.00;99.90
19781;DHT22;10050;55.492;13.506;2024-01-30T06:19:31;3.90;99.90
19781;DHT22;10050;55.492;13.506;2024-01-30T06:21:57;3.90;99.90
19781;DHT22;10050;55.492;13.506;2024-01-30T06:24:22;4.00;99.90
19781;DHT22;10050;55.492;13.506;2024-01-30T06:26:48;4.00;99.90
19781;DHT22;10050;55.492;13.506;2024-01-30T06:29:13;4.00;99.90
19781;DHT22;10050;55.492;13.506;2024-01-30T06:31:41;4.00;99.90
19781;DHT22;10050;55.492;13.506;2024-01-30T06:34:07;3.90;99.90
19781;DHT22;10050;55.492;13.506;2024-01-30T06:36:33;3.90;99.90
19781;DHT22;10050;55.492;13.506;2024-01-30T06:38:59;4.00;99.90
19781;DHT22;10050;55.492;13.506;2024-01-30T06:41:25;4.00;99.90
19781;DHT22;10050;55.492;13.506;2024-01-30T06:43:51;4.00;99.90
19781;DHT22;10050;55.492;13.506;2024-01-30T06:46:17;4.00;99.90
19781;DHT22;10050;55.492;13.506;2024-01-30T06:48:43;4.00;99.90
19781;DHT22;10050;55.492;13.506;2024-01-30T06:51:10;4.00;99.90
19781;DHT22;10050;55.492;13.506;2024-01-30T06:53:36;4.00;99.90
19781;DHT22;10050;55.492;13.506;2024-01-30T06:56:02;3.90;99.90
19781;DHT22;10050;55.492;13.506;2024-01-30T06:58:27;3.90;99.90
19781;DHT22;10050;55.492;13.506;2024-01-30T07:00:54;3.90;99.90
19781;DHT22;10050;55.492;13.506;2024-01-30T07:03:20;3.90;99.90
19781;DHT22;10050;55.492;13.506;2024-01-30T07:05:45;3.90;99.90
19781;DHT22;10050;55.492;13.506;2024-01-30T07:08:11;3.90;99.90
19781;DHT22;10050;55.492;13.506;2024-01-30T07:10:37;4.00;99.90
19781;DHT22;10050;55.492;13.506;2024-01-30T07:13:02;3.90;99.90
19781;DHT22;10050;55.492;13.506;2024-01-30T07:15:30;3.90;99.90
19781;DHT22;10050;55.492;13.506;2024-01-30T07:17:56;4.00;99.90
19781;DHT22;10050;55.492;13.506;2024-01-30T07:20:21;4.00;99.90
19781;DHT22;10050;55.492;13.506;2024-01-30T07:22:47;4.00;99.90
19781;DHT22;10050;55.492;13.506;2024-01-30T07:25:16;4.00;99.90
19781;DHT22;10050;55.492;13.506;2024-01-30T07:27:42;4.00;99.90
19781;DHT22;10050;55.492;13.506;2024-01-30T07:30:08;4.00;99.90
19781;DHT22;10050;55.492;13.506;2024-01-30T07:32:34;4.00;99.90
19781;DHT22;10050;55.492;13.506;2024-01-30T07:35:02;4.00;99.90
19781;DHT22;10050;55.492;13.506;2024-01-30T07:37:28;4.10;99.90
19781;DHT22;10050;55.492;13.506;2024-01-30T07:40:03;4.10;99.90
19781;DHT22;10050;55.492;13.506;2024-01-30T07:42:29;4.10;99.90
19781;DHT22;10050;55.492;13.506;2024-01-30T07:44:54;4.10;99.90
19781;DHT22;10050;55.492;13.506;2024-01-30T07:47:20;4.10;99.90
19781;DHT22;10050;55.492;13.506;2024-01-30T07:49:46;4.00;99.90
19781;DHT22;10050;55.492;13.506;2024-01-30T07:52:12;4.00;99.90
19781;DHT22;10050;55.492;13.506;2024-01-30T07:55:12;4.10;99.90
19781;DHT22;10050;55.492;13.506;2024-01-30T07:57:41;4.00;99.90
19781;DHT22;10050;55.492;13.506;2024-01-30T08:00:07;4.00;99.90
19781;DHT22;10050;55.492;13.506;2024-01-30T08:02:33;4.00;99.90
19781;DHT22;10050;55.492;13.506;2024-01-30T08:04:58;3.90;99.90
19781;DHT22;10050;55.492;13.506;2024-01-30T08:07:24;4.00;99.90
19781;DHT22;10050;55.492;13.506;2024-01-30T08:09:50;4.00;99.90
19781;DHT22;10050;55.492;13.506;2024-01-30T08:12:15;4.00;99.90
19781;DHT22;10050;55.492;13.506;2024-01-30T08:14:41;4.00;99.90
19781;DHT22;10050;55.492;13.506;2024-01-30T08:17:07;4.00;99.90
19781;DHT22;10050;55.492;13.506;2024-01-30T08:19:33;4.00;99.90
19781;DHT22;10050;55.492;13.506;2024-01-30T08:21:59;4.00;99.90
19781;DHT22;10050;55.492;13.506;2024-01-30T08:24:25;4.00;99.90
19781;DHT22;10050;55.492;13.506;2024-01-30T08:26:50;4.10;99.90
19781;DHT22;10050;55.492;13.506;2024-01-30T08:29:16;4.10;99.90
19781;DHT22;10050;55.492;13.506;2024-01-30T08:31:41;4.10;99.90
19781;DHT22;10050;55.492;13.506;2024-01-30T08:34:07;4.20;99.90
19781;DHT22;10050;55.492;13.506;2024-01-30T08:36:33;4.20;99.90
19781;DHT22;10050;55.492;13.506;2024-01-30T08:38:58;4.30;99.90
19781;DHT22;10050;55.492;13.506;2024-01-30T08:41:24;4.30;99.90
19781;DHT22;10050;55.492;13.506;2024-01-30T08:43:50;4.30;99.90
19781;DHT22;10050;55.492;13.506;2024-01-30T08:46:18;4.30;99.90
19781;DHT22;10050;55.492;13.506;2024-01-30T08:48:44;4.30;99.90
19781;DHT22;10050;55.492;13.506;2024-01-30T08:51:10;4.40;99.90
19781;DHT22;10050;55.492;13.506;2024-01-30T08:53:36;4.50;99.90
19781;DHT22;10050;55.492;13.506;2024-01-30T08:56:03;4.50;99.90
19781;DHT22;10050;55.492;13.506;2024-01-30T08:58:29;4.50;99.90
19781;DHT22;10050;55.492;13.506;2024-01-30T09:00:55;4.60;99.90
19781;DHT22;10050;55.492;13.506;2024-01-30T09:03:20;4.50;99.90
19781;DHT22;10050;55.492;13.506;2024-01-30T09:05:46;4.60;99.90
19781;DHT22;10050;55.492;13.506;2024-01-30T09:08:11;4.60;99.90
19781;DHT22;10050;55.492;13.506;2024-01-30T09:10:37;4.60;99.90
19781;DHT22;10050;55.492;13.506;2024-01-30T09:13:03;4.60;99.90
19781;DHT22;10050;55.492;13.506;2024-01-30T09:15:28;4.60;99.90
19781;DHT22;10050;55.492;13.506;2024-01-30T09:17:54;4.70;99.90
19781;DHT22;10050;55.492;13.506;2024-01-30T09:20:20;4.70;99.90
19781;DHT22;10050;55.492;13.506;2024-01-30T09:22:47;4.70;99.90
19781;DHT22;10050;55.492;13.506;2024-01-30T09:25:13;4.70;99.90
19781;DHT22;10050;55.492;13.506;2024-01-30T09:27:39;4.80;99.90
19781;DHT22;10050;55.492;13.506;2024-01-30T09:30:06;4.80;99.90
19781;DHT22;10050;55.492;13.506;2024-01-30T09:32:31;4.90;99.90
19781;DHT22;10050;55.492;13.506;2024-01-30T09:35:00;4.90;99.90
19781;DHT22;10050;55.492;13.506;2024-01-30T09:37:25;4.90;99.90
19781;DHT22;10050;55.492;13.506;2024-01-30T09:39:51;4.90;99.90
19781;DHT22;10050;55.492;13.506;2024-01-30T09:44:51;5.00;99.90
19781;DHT22;10050;55.492;13.506;2024-01-30T09:47:18;5.00;99.90
19781;DHT22;10050;55.492;13.506;2024-01-30T09:49:44;5.10;99.90
19781;DHT22;10050;55.492;13.506;2024-01-30T09:52:11;5.10;99.90
19781;DHT22;10050;55.492;13.506;2024-01-30T09:54:38;5.10;99.90
19781;DHT22;10050;55.492;13.506;2024-01-30T09:57:04;5.20;99.90
19781;DHT22;10050;55.492;13.506;2024-01-30T09:59:30;5.20;99.90
19781;DHT22;10050;55.492;13.506;2024-01-30T10:01:57;5.20;99.90
19781;DHT22;10050;55.492;13.506;2024-01-30T10:04:22;5.20;99.90
19781;DHT22;10050;55.492;13.506;2024-01-30T10:06:48;5.20;99.90
19781;DHT22;10050;55.492;13.506;2024-01-30T10:09:14;5.20;99.90
19781;DHT22;10050;55.492;13.506;2024-01-30T10:11:40;5.20;99.90
19781;DHT22;10050;55.492;13.506;2024-01-30T10:14:06;5.20;99.90
19781;DHT22;10050;55.492;13.506;2024-01-30T10:16:31;5.20;99.90
19781;DHT22;10050;55.492;13.506;2024-01-30T10:18:57;5.10;99.90
19781;DHT22;10050;55.492;13.506;2024-01-30T10:21:23;5.10;99.90
19781;DHT22;10050;55.492;13.506;2024-01-30T10:23:49;5.10;99.90
19781;DHT22;10050;55.492;13.506;2024-01-30T10:26:18;5.10;99.90
19781;DHT22;10050;55.492;13.506;2024-01-30T10:28:44;5.10;99.90
19781;DHT22;10050;55.492;13.506;2024-01-30T10:31:09;5.00;99.90
19781;DHT22;10050;55.492;13.506;2024-01-30T10:33:35;5.10;99.90
19781;DHT22;10050;55.492;13.506;2024-01-30T10:36:04;5.00;99.90
19781;DHT22;10050;55.492;13.506;2024-01-30T10:38:32;5.10;99.90
19781;DHT22;10050;55.492;13.506;2024-01-30T10:41:01;5.10;99.90
19781;DHT22;10050;55.492;13.506;2024-01-30T10:43:41;5.10;99.90
19781;DHT22;10050;55.492;13.506;2024-01-30T10:46:11;5.10;99.90
19781;DHT22;10050;55.492;13.506;2024-01-30T10:48:43;5.10;99.90
19781;DHT22;10050;55.492;13.506;2024-01-30T10:51:11;5.00;99.90
19781;DHT22;10050;55.492;13.506;2024-01-30T10:53:38;5.00;99.90
19781;DHT22;10050;55.492;13.506;2024-01-30T10:56:05;5.00;99.90
19781;DHT22;10050;55.492;13.506;2024-01-30T10:58:31;5.00;99.90
19781;DHT22;10050;55.492;13.506;2024-01-30T11:00:57;5.10;99.90
19781;DHT22;10050;55.492;13.506;2024-01-30T11:03:23;5.10;99.90
19781;DHT22;10050;55.492;13.506;2024-01-30T11:05:50;5.10;99.90
19781;DHT22;10050;55.492;13.506;2024-01-30T11:08:25;5.10;99.90
19781;DHT22;10050;55.492;13.506;2024-01-30T11:10:57;5.10;99.90
19781;DHT22;10050;55.492;13.506;2024-01-30T11:13:32;5.20;99.90
19781;DHT22;10050;55.492;13.506;2024-01-30T11:16:04;5.20;99.90
19781;DHT22;10050;55.492;13.506;2024-01-30T11:18:32;5.20;99.90
19781;DHT22;10050;55.492;13.506;2024-01-30T11:20:59;5.20;99.90
19781;DHT22;10050;55.492;13.506;2024-01-30T11:23:27;5.20;99.90
19781;DHT22;10050;55.492;13.506;2024-01-30T11:25:54;5.20;99.90
19781;DHT22;10050;55.492;13.506;2024-01-30T11:28:21;5.30;99.90
19781;DHT22;10050;55.492;13.506;2024-01-30T11:30:47;5.30;99.90
19781;DHT22;10050;55.492;13.506;2024-01-30T11:33:30;5.30;99.90
19781;DHT22;10050;55.492;13.506;2024-01-30T11:35:57;5.30;99.90
19781;DHT22;10050;55.492;13.506;2024-01-30T11:38:26;5.30;99.90
19781;DHT22;10050;55.492;13.506;2024-01-30T11:40:55;5.30;99.90
19781;DHT22;10050;55.492;13.506;2024-01-30T11:43:24;5.40;99.90
19781;DHT22;10050;55.492;13.506;2024-01-30T11:45:50;5.40;99.90
19781;DHT22;10050;55.492;13.506;2024-01-30T11:48:16;5.50;99.90
19781;DHT22;10050;55.492;13.506;2024-01-30T11:50:43;5.50;99.90
19781;DHT22;10050;55.492;13.506;2024-01-30T11:53:10;5.50;99.90
19781;DHT22;10050;55.492;13.506;2024-01-30T11:55:36;5.60;99.90
19781;DHT22;10050;55.492;13.506;2024-01-30T11:58:09;5.70;99.90
19781;DHT22;10050;55.492;13.506;2024-01-30T12:00:34;5.70;99.90
19781;DHT22;10050;55.492;13.506;2024-01-30T12:03:00;5.60;99.90
19781;DHT22;10050;55.492;13.506;2024-01-30T12:05:27;5.70;99.90
19781;DHT22;10050;55.492;13.506;2024-01-30T12:07:54;5.70;99.90
19781;DHT22;10050;55.492;13.506;2024-01-30T12:10:24;5.70;99.90
19781;DHT22;10050;55.492;13.506;2024-01-30T12:12:50;5.80;99.90
19781;DHT22;10050;55.492;13.506;2024-01-30T12:15:17;5.70;99.90
19781;DHT22;10050;55.492;13.506;2024-01-30T12:17:43;5.70;99.90
19781;DHT22;10050;55.492;13.506;2024-01-30T12:20:11;5.70;99.90
19781;DHT22;10050;55.492;13.506;2024-01-30T12:22:41;5.80;99.90
19781;DHT22;10050;55.492;13.506;2024-01-30T12:25:20;5.80;99.90
19781;DHT22;10050;55.492;13.506;2024-01-30T12:27:48;5.70;99.90
19781;DHT22;10050;55.492;13.506;2024-01-30T12:30:19;5.70;99.90
19781;DHT22;10050;55.492;13.506;2024-01-30T12:32:46;5.70;99.90
19781;DHT22;10050;55.492;13.506;2024-01-30T12:35:17;5.70;99.90
19781;DHT22;10050;55.492;13.506;2024-01-30T12:37:43;5.60;99.90
19781;DHT22;10050;55.492;13.506;2024-01-30T12:40:17;5.60;99.90
19781;DHT22;10050;55.492;13.506;2024-01-30T12:42:43;5.70;99.90
19781;DHT22;10050;55.492;13.506;2024-01-30T12:45:11;5.60;99.90
19781;DHT22;10050;55.492;13.506;2024-01-30T12:47:37;5.60;99.90
19781;DHT22;10050;55.492;13.506;2024-01-30T12:50:03;5.50;99.90
19781;DHT22;10050;55.492;13.506;2024-01-30T12:52:35;5.60;99.90
19781;DHT22;10050;55.492;13.506;2024-01-30T12:55:04;5.50;99.90
19781;DHT22;10050;55.492;13.506;2024-01-30T12:57:30;5.50;99.90
19781;DHT22;10050;55.492;13.506;2024-01-30T12:59:55;5.50;99.90
19781;DHT22;10050;55.492;13.506;2024-01-30T13:02:21;5.50;99.90
19781;DHT22;10050;55.492;13.506;2024-01-30T13:04:48;5.50;99.90
19781;DHT22;10050;55.492;13.506;2024-01-30T13:07:13;5.50;99.90
19781;DHT22;10050;55.492;13.506;2024-01-30T13:09:39;5.60;99.90
19781;DHT22;10050;55.492;13.506;2024-01-30T13:12:05;5.50;99.90
19781;DHT22;10050;55.492;13.506;2024-01-30T13:14:31;5.50;99.90
19781;DHT22;10050;55.492;13.506;2024-01-30T13:16:56;5.50;99.90
19781;DHT22;10050;55.492;13.506;2024-01-30T13:19:22;5.50;99.90
19781;DHT22;10050;55.492;13.506;2024-01-30T13:21:47;5.60;99.90
19781;DHT22;10050;55.492;13.506;2024-01-30T13:24:14;5.60;99.90
19781;DHT22;10050;55.492;13.506;2024-01-30T13:26:39;5.50;99.90
19781;DHT22;10050;55.492;13.506;2024-01-30T13:29:08;5.50;99.90
19781;DHT22;10050;55.492;13.506;2024-01-30T13:31:34;5.60;99.90
19781;DHT22;10050;55.492;13.506;2024-01-30T13:34:00;5.60;99.90
19781;DHT22;10050;55.492;13.506;2024-01-30T13:36:25;5.60;99.90
19781;DHT22;10050;55.492;13.506;2024-01-30T13:38:51;5.60;99.90
19781;DHT22;10050;55.492;13.506;2024-01-30T13:41:17;5.60;99.90
19781;DHT22;10050;55.492;13.506;2024-01-30T13:43:43;5.50;99.90
19781;DHT22;10050;55.492;13.506;2024-01-30T13:46:10;5.40;99.90
19781;DHT22;10050;55.492;13.506;2024-01-30T13:48:35;5.40;99.90
19781;DHT22;10050;55.492;13.506;2024-01-30T13:51:01;5.40;99.90
19781;DHT22;10050;55.492;13.506;2024-01-30T13:53:27;5.30;99.90
19781;DHT22;10050;55.492;13.506;2024-01-30T13:55:52;5.40;99.90
19781;DHT22;10050;55.492;13.506;2024-01-30T13:58:18;5.40;99.90
19781;DHT22;10050;55.492;13.506;2024-01-30T14:00:44;5.40;99.90
19781;DHT22;10050;55.492;13.506;2024-01-30T14:03:09;5.30;99.90
19781;DHT22;10050;55.492;13.506;2024-01-30T14:05:35;5.30;99.90
19781;DHT22;10050;55.492;13.506;2024-01-30T14:08:01;5.40;99.90
19781;DHT22;10050;55.492;13.506;2024-01-30T14:10:27;5.40;99.90
19781;DHT22;10050;55.492;13.506;2024-01-30T14:12:52;5.30;99.90
19781;DHT22;10050;55.492;13.506;2024-01-30T14:15:18;5.20;99.90
19781;DHT22;10050;55.492;13.506;2024-01-30T14:17:44;5.20;99.90
19781;DHT22;10050;55.492;13.506;2024-01-30T14:20:11;5.20;99.90
19781;DHT22;10050;55.492;13.506;2024-01-30T14:22:37;5.20;99.90
19781;DHT22;10050;55.492;13.506;2024-01-30T14:25:03;5.10;99.90
19781;DHT22;10050;55.492;13.506;2024-01-30T14:27:29;5.10;99.90
19781;DHT22;10050;55.492;13.506;2024-01-30T14:29:56;5.10;99.90
19781;DHT22;10050;55.492;13.506;2024-01-30T14:32:22;5.10;99.90
19781;DHT22;10050;55.492;13.506;2024-01-30T14:34:49;5.10;99.90
19781;DHT22;10050;55.492;13.506;2024-01-30T14:37:14;5.20;99.90
19781;DHT22;10050;55.492;13.506;2024-01-30T14:39:40;5.10;99.90
19781;DHT22;10050;55.492;13.506;2024-01-30T14:42:06;5.20;99.90
19781;DHT22;10050;55.492;13.506;2024-01-30T14:44:32;5.10;99.90
19781;DHT22;10050;55.492;13.506;2024-01-30T14:46:59;5.00;99.90
19781;DHT22;10050;55.492;13.506;2024-01-30T14:49:25;4.90;99.90
19781;DHT22;10050;55.492;13.506;2024-01-30T14:51:51;4.90;99.90
19781;DHT22;10050;55.492;13.506;2024-01-30T14:54:19;4.90;99.90
19781;DHT22;10050;55.492;13.506;2024-01-30T14:56:45;4.90;99.90
19781;DHT22;10050;55.492;13.506;2024-01-30T14:59:11;4.90;99.90
19781;DHT22;10050;55.492;13.506;2024-01-30T15:01:39;4.90;99.90
19781;DHT22;10050;55.492;13.506;2024-01-30T15:04:05;4.90;99.90
19781;DHT22;10050;55.492;13.506;2024-01-30T15:06:32;4.80;99.90
19781;DHT22;10050;55.492;13.506;2024-01-30T15:08:58;4.70;99.90
19781;DHT22;10050;55.492;13.506;2024-01-30T15:11:24;4.70;99.90
19781;DHT22;10050;55.492;13.506;2024-01-30T15:13:50;4.70;99.90
19781;DHT22;10050;55.492;13.506;2024-01-30T15:16:15;4.70;99.90
19781;DHT22;10050;55.492;13.506;2024-01-30T15:18:41;4.70;99.90
19781;DHT22;10050;55.492;13.506;2024-01-30T15:21:07;4.70;99.90
19781;DHT22;10050;55.492;13.506;2024-01-30T15:23:33;4.70;99.90
19781;DHT22;10050;55.492;13.506;2024-01-30T15:25:58;4.70;99.90
19781;DHT22;10050;55.492;13.506;2024-01-30T15:28:35;4.60;99.90